sensor_id;sensor_type;location;lat;lon;timestamp;temperature;humidity
9482;DHT22;4779;48.062;11.672;2023-10-08T00:02:05;15.60;85.20
9482;DHT22;4779;48.062;11.672;2023-10-08T00:04:33;15.60;86.80
9482;DHT22;4779;48.062;11.672;2023-10-08T00:07:03;15.60;87.20
9482;DHT22;4779;48.062;11.672;2023-10-08T00:09:32;15.60;87.20
9482;DHT22;4779;48.062;11.672;2023-10-08T00:12:01;15.70;86.70
9482;DHT22;4779;48.062;11.672;2023-10-08T00:14:29;15.70;84.00
9482;DHT22;4779;48.062;11.672;2023-10-08T00:16:56;15.80;83.60
9482;DHT22;4779;48.062;11.672;2023-10-08T00:19:23;15.80;81.90
9482;DHT22;4779;48.062;11.672;2023-10-08T00:21:51;15.90;81.80
9482;DHT22;4779;48.062;11.672;2023-10-08T00:24:19;16.00;80.80
9482;DHT22;4779;48.062;11.672;2023-10-08T00:26:52;16.10;81.60
9482;DHT22;4779;48.062;11.672;2023-10-08T00:29:20;16.30;79.70
9482;DHT22;4779;48.062;11.672;2023-10-08T00:31:48;16.30;78.30
9482;DHT22;4779;48.062;11.672;2023-10-08T00:34:15;16.40;78.50
9482;DHT22;4779;48.062;11.672;2023-10-08T00:36:46;16.40;79.70
9482;DHT22;4779;48.062;11.672;2023-10-08T00:39:15;16.40;78.30
9482;DHT22;4779;48.062;11.672;2023-10-08T00:41:48;16.50;79.20
9482;DHT22;4779;48.062;11.672;2023-10-08T00:44:16;16.50;78.30
9482;DHT22;4779;48.062;11.672;2023-10-08T00:46:49;16.50;78.10
9482;DHT22;4779;48.062;11.672;2023-10-08T00:49:17;16.50;79.30
9482;DHT22;4779;48.062;11.672;2023-10-08T00:51:52;16.50;80.00
9482;DHT22;4779;48.062;11.672;2023-10-08T00:54:51;16.50;79.00
9482;DHT22;4779;48.062;11.672;2023-10-08T00:57:33;16.60;78.10
9482;DHT22;4779;48.062;11.672;2023-10-08T01:00:03;16.60;78.70
9482;DHT22;4779;48.062;11.672;2023-10-08T01:02:40;16.70;79.00
9482;DHT22;4779;48.062;11.672;2023-10-08T01:05:12;16.60;78.80
9482;DHT22;4779;48.062;11.672;2023-10-08T01:07:42;16.70;79.50
9482;DHT22;4779;48.062;11.672;2023-10-08T01:10:15;16.70;77.80
9482;DHT22;4779;48.062;11.672;2023-10-08T01:12:46;16.80;77.40
9482;DHT22;4779;48.062;11.672;2023-10-08T01:15:29;16.80;79.20
9482;DHT22;4779;48.062;11.672;2023-10-08T01:18:02;16.80;77.80
9482;DHT22;4779;48.062;11.672;2023-10-08T01:20:30;16.90;77.80
9482;DHT22;4779;48.062;11.672;2023-10-08T01:23:04;17.00;77.30
9482;DHT22;4779;48.062;11.672;2023-10-08T01:25:39;16.90;78.20
9482;DHT22;4779;48.062;11.672;2023-10-08T01:28:07;16.90;77.60
9482;DHT22;4779;48.062;11.672;2023-10-08T01:30:43;16.90;79.20
9482;DHT22;4779;48.062;11.672;2023-10-08T01:33:12;16.90;78.20
9482;DHT22;4779;48.062;11.672;2023-10-08T01:35:41;16.90;78.20
9482;DHT22;4779;48.062;11.672;2023-10-08T01:38:09;16.80;79.40
9482;DHT22;4779;48.062;11.672;2023-10-08T01:40:40;16.80;78.90
9482;DHT22;4779;48.062;11.672;2023-10-08T01:43:07;16.80;79.50
9482;DHT22;4779;48.062;11.672;2023-10-08T01:45:38;16.80;78.70
9482;DHT22;4779;48.062;11.672;2023-10-08T01:48:08;16.80;78.40
9482;DHT22;4779;48.062;11.672;2023-10-08T01:50:37;16.80;77.10
9482;DHT22;4779;48.062;11.672;2023-10-08T01:53:04;16.80;76.50
9482;DHT22;4779;48.062;11.672;2023-10-08T01:55:36;16.90;77.10
9482;DHT22;4779;48.062;11.672;2023-10-08T01:58:15;16.90;78.50
9482;DHT22;4779;48.062;11.672;2023-10-08T02:00:43;16.90;78.30
9482;DHT22;4779;48.062;11.672;2023-10-08T02:03:12;16.80;78.90
9482;DHT22;4779;48.062;11.672;2023-10-08T02:05:41;16.70;78.40
9482;DHT22;4779;48.062;11.672;2023-10-08T02:08:09;16.70;77.00
9482;DHT22;4779;48.062;11.672;2023-10-08T02:10:43;16.70;77.10
9482;DHT22;4779;48.062;11.672;2023-10-08T02:13:13;16.70;78.50
9482;DHT22;4779;48.062;11.672;2023-10-08T02:15:43;16.60;78.20
9482;DHT22;4779;48.062;11.672;2023-10-08T02:18:11;16.60;76.90
9482;DHT22;4779;48.062;11.672;2023-10-08T02:20:39;16.60;77.70
9482;DHT22;4779;48.062;11.672;2023-10-08T02:23:07;16.60;76.50
9482;DHT22;4779;48.062;11.672;2023-10-08T02:25:36;16.50;78.40
9482;DHT22;4779;48.062;11.672;2023-10-08T02:28:06;16.60;75.10
9482;DHT22;4779;48.062;11.672;2023-10-08T02:30:34;16.60;75.20
9482;DHT22;4779;48.062;11.672;2023-10-08T02:33:02;16.60;75.10
9482;DHT22;4779;48.062;11.672;2023-10-08T02:35:29;16.60;75.50
9482;DHT22;4779;48.062;11.672;2023-10-08T02:37:57;16.60;75.90
9482;DHT22;4779;48.062;11.672;2023-10-08T02:40:24;16.70;75.20
9482;DHT22;4779;48.062;11.672;2023-10-08T02:42:53;16.70;77.20
9482;DHT22;4779;48.062;11.672;2023-10-08T02:45:26;16.70;75.80
9482;DHT22;4779;48.062;11.672;2023-10-08T02:47:53;16.70;74.00
9482;DHT22;4779;48.062;11.672;2023-10-08T02:50:21;16.70;74.00
9482;DHT22;4779;48.062;11.672;2023-10-08T02:52:48;16.80;73.30
9482;DHT22;4779;48.062;11.672;2023-10-08T02:55:16;16.80;73.80
9482;DHT22;4779;48.062;11.672;2023-10-08T02:57:54;16.80;73.10
9482;DHT22;4779;48.062;11.672;2023-10-08T03:00:21;16.80;74.60
9482;DHT22;4779;48.062;11.672;2023-10-08T03:02:56;16.80;75.00
9482;DHT22;4779;48.062;11.672;2023-10-08T03:05:23;16.80;73.60
9482;DHT22;4779;48.062;11.672;2023-10-08T03:07:55;16.70;78.70
9482;DHT22;4779;48.062;11.672;2023-10-08T03:10:23;16.60;77.90
9482;DHT22;4779;48.062;11.672;2023-10-08T03:12:58;16.60;75.80
9482;DHT22;4779;48.062;11.672;2023-10-08T03:15:30;16.60;74.80
9482;DHT22;4779;48.062;11.672;2023-10-08T03:18:06;16.60;75.50
9482;DHT22;4779;48.062;11.672;2023-10-08T03:20:40;16.60;74.60
9482;DHT22;4779;48.062;11.672;2023-10-08T03:23:13;16.70;74.60
9482;DHT22;4779;48.062;11.672;2023-10-08T03:25:53;16.70;75.10
9482;DHT22;4779;48.062;11.672;2023-10-08T03:28:26;16.70;75.10
9482;DHT22;4779;48.062;11.672;2023-10-08T03:30:54;16.70;75.20
9482;DHT22;4779;48.062;11.672;2023-10-08T03:33:31;16.70;75.80
9482;DHT22;4779;48.062;11.672;2023-10-08T03:36:01;16.70;77.70
9482;DHT22;4779;48.062;11.672;2023-10-08T03:38:38;16.70;77.50
9482;DHT22;4779;48.062;11.672;2023-10-08T03:41:16;16.70;77.70
9482;DHT22;4779;48.062;11.672;2023-10-08T03:43:44;16.70;77.00
9482;DHT22;4779;48.062;11.672;2023-10-08T03:46:19;16.70;77.20
9482;DHT22;4779;48.062;11.672;2023-10-08T03:48:48;16.60;76.80
9482;DHT22;4779;48.062;11.672;2023-10-08T03:51:17;16.60;78.00
9482;DHT22;4779;48.062;11.672;2023-10-08T03:53:46;16.60;79.30
9482;DHT22;4779;48.062;11.672;2023-10-08T03:56:25;16.60;78.40
9482;DHT22;4779;48.062;11.672;2023-10-08T03:58:55;16.60;76.70
9482;DHT22;4779;48.062;11.672;2023-10-08T04:01:26;16.70;78.10
9482;DHT22;4779;48.062;11.672;2023-10-08T04:03:58;16.70;82.20
9482;DHT22;4779;48.062;11.672;2023-10-08T04:06:27;16.70;80.50
9482;DHT22;4779;48.062;11.672;2023-10-08T04:09:04;16.60;79.70
9482;DHT22;4779;48.062;11.672;2023-10-08T04:11:42;16.60;79.90
9482;DHT22;4779;48.062;11.672;2023-10-08T04:14:23;16.50;80.30
9482;DHT22;4779;48.062;11.672;2023-10-08T04:16:50;16.50;81.40
9482;DHT22;4779;48.062;11.672;2023-10-08T04:19:20;16.40;80.10
9482;DHT22;4779;48.062;11.672;2023-10-08T04:21:52;16.50;80.80
9482;DHT22;4779;48.062;11.672;2023-10-08T04:24:22;16.50;81.90
9482;DHT22;4779;48.062;11.672;2023-10-08T04:26:55;16.50;79.50
9482;DHT22;4779;48.062;11.672;2023-10-08T04:29:23;16.50;83.00
9482;DHT22;4779;48.062;11.672;2023-10-08T04:31:51;16.50;83.10
9482;DHT22;4779;48.062;11.672;2023-10-08T04:34:29;16.40;84.90
9482;DHT22;4779;48.062;11.672;2023-10-08T04:36:58;16.30;84.10
9482;DHT22;4779;48.062;11.672;2023-10-08T04:39:26;16.30;87.60
9482;DHT22;4779;48.062;11.672;2023-10-08T04:41:58;16.30;87.60
9482;DHT22;4779;48.062;11.672;2023-10-08T04:44:31;16.20;88.30
9482;DHT22;4779;48.062;11.672;2023-10-08T04:46:59;16.20;89.60
9482;DHT22;4779;48.062;11.672;2023-10-08T04:49:33;16.20;90.20
9482;DHT22;4779;48.062;11.672;2023-10-08T04:52:04;16.20;89.60
9482;DHT22;4779;48.062;11.672;2023-10-08T04:54:35;16.20;86.40
9482;DHT22;4779;48.062;11.672;2023-10-08T04:57:06;16.20;87.30
9482;DHT22;4779;48.062;11.672;2023-10-08T04:59:41;16.20;90.30
9482;DHT22;4779;48.062;11.672;2023-10-08T05:02:09;16.20;90.90
9482;DHT22;4779;48.062;11.672;2023-10-08T05:04:47;16.10;91.30
9482;DHT22;4779;48.062;11.672;2023-10-08T05:07:32;16.00;91.40
9482;DHT22;4779;48.062;11.672;2023-10-08T05:10:22;16.00;92.30
9482;DHT22;4779;48.062;11.672;2023-10-08T05:13:07;15.90;91.80
9482;DHT22;4779;48.062;11.672;2023-10-08T05:15:42;15.90;91.80
9482;DHT22;4779;48.062;11.672;2023-10-08T05:18:27;15.80;92.60
9482;DHT22;4779;48.062;11.672;2023-10-08T05:21:16;15.80;92.80
9482;DHT22;4779;48.062;11.672;2023-10-08T05:23:51;15.80;92.50
9482;DHT22;4779;48.062;11.672;2023-10-08T05:26:41;15.80;93.40
9482;DHT22;4779;48.062;11.672;2023-10-08T05:29:08;15.70;93.10
9482;DHT22;4779;48.062;11.672;2023-10-08T05:31:53;15.70;93.80
9482;DHT22;4779;48.062;11.672;2023-10-08T05:34:40;15.70;94.00
9482;DHT22;4779;48.062;11.672;2023-10-08T05:37:18;15.70;94.40
9482;DHT22;4779;48.062;11.672;2023-10-08T05:40:08;15.70;94.20
9482;DHT22;4779;48.062;11.672;2023-10-08T05:42:39;15.70;94.70
9482;DHT22;4779;48.062;11.672;2023-10-08T05:45:13;15.70;94.90
9482;DHT22;4779;48.062;11.672;2023-10-08T05:47:55;15.70;95.00
9482;DHT22;4779;48.062;11.672;2023-10-08T05:50:39;15.70;94.40
9482;DHT22;4779;48.062;11.672;2023-10-08T05:53:09;15.80;94.10
9482;DHT22;4779;48.062;11.672;2023-10-08T05:56:06;15.70;94.00
9482;DHT22;4779;48.062;11.672;2023-10-08T05:58:52;15.80;94.20
9482;DHT22;4779;48.062;11.672;2023-10-08T06:01:28;15.80;95.40
9482;DHT22;4779;48.062;11.672;2023-10-08T06:04:05;15.80;96.00
9482;DHT22;4779;48.062;11.672;2023-10-08T06:06:46;15.80;96.50
9482;DHT22;4779;48.062;11.672;2023-10-08T06:09:24;15.80;96.40
9482;DHT22;4779;48.062;11.672;2023-10-08T06:12:01;15.80;95.50
9482;DHT22;4779;48.062;11.672;2023-10-08T06:14:36;15.80;95.40
9482;DHT22;4779;48.062;11.672;2023-10-08T06:17:19;15.80;95.50
9482;DHT22;4779;48.062;11.672;2023-10-08T06:20:01;15.90;95.60
9482;DHT22;4779;48.062;11.672;2023-10-08T06:22:35;15.90;95.70
9482;DHT22;4779;48.062;11.672;2023-10-08T06:25:03;16.00;96.10
9482;DHT22;4779;48.062;11.672;2023-10-08T06:27:43;16.00;94.60
9482;DHT22;4779;48.062;11.672;2023-10-08T06:30:12;16.10;94.90
9482;DHT22;4779;48.062;11.672;2023-10-08T06:32:43;16.10;94.00
9482;DHT22;4779;48.062;11.672;2023-10-08T06:35:11;16.20;94.70
9482;DHT22;4779;48.062;11.672;2023-10-08T06:37:44;16.20;96.90
9482;DHT22;4779;48.062;11.672;2023-10-08T06:40:13;16.30;98.20
9482;DHT22;4779;48.062;11.672;2023-10-08T06:43:06;16.40;98.10
9482;DHT22;4779;48.062;11.672;2023-10-08T06:45:40;16.40;99.90
9482;DHT22;4779;48.062;11.672;2023-10-08T06:48:07;16.50;99.90
9482;DHT22;4779;48.062;11.672;2023-10-08T06:50:35;16.50;99.70
9482;DHT22;4779;48.062;11.672;2023-10-08T06:53:03;16.50;99.50
9482;DHT22;4779;48.062;11.672;2023-10-08T06:55:34;16.50;97.90
9482;DHT22;4779;48.062;11.672;2023-10-08T06:58:02;16.50;97.20
9482;DHT22;4779;48.062;11.672;2023-10-08T07:00:35;16.50;96.30
9482;DHT22;4779;48.062;11.672;2023-10-08T07:03:08;16.60;95.90
9482;DHT22;4779;48.062;11.672;2023-10-08T07:05:37;16.60;97.60
9482;DHT22;4779;48.062;11.672;2023-10-08T07:08:09;16.70;94.20
9482;DHT22;4779;48.062;11.672;2023-10-08T07:10:40;16.80;95.10
9482;DHT22;4779;48.062;11.672;2023-10-08T07:13:12;16.80;94.90
9482;DHT22;4779;48.062;11.672;2023-10-08T07:15:43;16.90;96.10
9482;DHT22;4779;48.062;11.672;2023-10-08T07:18:10;17.00;97.00
9482;DHT22;4779;48.062;11.672;2023-10-08T07:20:39;17.10;94.80
9482;DHT22;4779;48.062;11.672;2023-10-08T07:23:08;17.20;93.90
9482;DHT22;4779;48.062;11.672;2023-10-08T07:25:52;17.30;94.00
9482;DHT22;4779;48.062;11.672;2023-10-08T07:28:23;17.40;93.10
9482;DHT22;4779;48.062;11.672;2023-10-08T07:30:51;17.50;92.00
9482;DHT22;4779;48.062;11.672;2023-10-08T07:33:18;17.60;92.70
9482;DHT22;4779;48.062;11.672;2023-10-08T07:35:46;17.60;93.50
9482;DHT22;4779;48.062;11.672;2023-10-08T07:38:29;17.70;92.80
9482;DHT22;4779;48.062;11.672;2023-10-08T07:40:57;17.80;92.40
9482;DHT22;4779;48.062;11.672;2023-10-08T07:43:26;18.00;91.90
9482;DHT22;4779;48.062;11.672;2023-10-08T07:45:58;18.20;91.80
9482;DHT22;4779;48.062;11.672;2023-10-08T07:48:25;18.40;92.80
9482;DHT22;4779;48.062;11.672;2023-10-08T07:50:56;18.50;91.80
9482;DHT22;4779;48.062;11.672;2023-10-08T07:53:23;18.70;92.90
9482;DHT22;4779;48.062;11.672;2023-10-08T07:56:04;18.70;91.30
9482;DHT22;4779;48.062;11.672;2023-10-08T07:58:34;18.70;91.70
9482;DHT22;4779;48.062;11.672;2023-10-08T08:01:03;18.80;91.90
9482;DHT22;4779;48.062;11.672;2023-10-08T08:03:32;18.70;91.50
9482;DHT22;4779;48.062;11.672;2023-10-08T08:06:02;18.70;89.00
9482;DHT22;4779;48.062;11.672;2023-10-08T08:08:32;18.60;90.60
9482;DHT22;4779;48.062;11.672;2023-10-08T08:10:59;18.60;90.50
9482;DHT22;4779;48.062;11.672;2023-10-08T08:13:34;18.50;90.10
9482;DHT22;4779;48.062;11.672;2023-10-08T08:16:02;18.50;91.90
9482;DHT22;4779;48.062;11.672;2023-10-08T08:18:42;18.50;91.90
9482;DHT22;4779;48.062;11.672;2023-10-08T08:21:10;18.40;91.00
9482;DHT22;4779;48.062;11.672;2023-10-08T08:23:41;18.40;90.70
9482;DHT22;4779;48.062;11.672;2023-10-08T08:26:14;18.40;91.00
9482;DHT22;4779;48.062;11.672;2023-10-08T08:28:54;18.40;91.90
9482;DHT22;4779;48.062;11.672;2023-10-08T08:31:22;18.40;91.90
9482;DHT22;4779;48.062;11.672;2023-10-08T08:33:50;18.50;91.90
9482;DHT22;4779;48.062;11.672;2023-10-08T08:36:23;18.50;92.10
9482;DHT22;4779;48.062;11.672;2023-10-08T08:38:51;18.50;91.30
9482;DHT22;4779;48.062;11.672;2023-10-08T08:41:18;18.50;92.20
9482;DHT22;4779;48.062;11.672;2023-10-08T08:43:50;18.50;92.70
9482;DHT22;4779;48.062;11.672;2023-10-08T08:46:28;18.40;91.90
9482;DHT22;4779;48.062;11.672;2023-10-08T08:49:00;18.40;91.50
9482;DHT22;4779;48.062;11.672;2023-10-08T08:51:29;18.30;92.20
9482;DHT22;4779;48.062;11.672;2023-10-08T08:53:57;18.30;92.30
9482;DHT22;4779;48.062;11.672;2023-10-08T08:56:26;18.30;92.70
9482;DHT22;4779;48.062;11.672;2023-10-08T08:58:55;18.30;93.20
9482;DHT22;4779;48.062;11.672;2023-10-08T09:01:27;18.30;93.00
9482;DHT22;4779;48.062;11.672;2023-10-08T09:03:59;18.30;94.10
9482;DHT22;4779;48.062;11.672;2023-10-08T09:06:27;18.20;93.00
9482;DHT22;4779;48.062;11.672;2023-10-08T09:08:54;18.30;93.30
9482;DHT22;4779;48.062;11.672;2023-10-08T09:11:39;18.30;92.70
9482;DHT22;4779;48.062;11.672;2023-10-08T09:14:08;18.30;91.90
9482;DHT22;4779;48.062;11.672;2023-10-08T09:16:38;18.40;92.00
9482;DHT22;4779;48.062;11.672;2023-10-08T09:19:05;18.40;91.90
9482;DHT22;4779;48.062;11.672;2023-10-08T09:21:37;18.50;93.10
9482;DHT22;4779;48.062;11.672;2023-10-08T09:24:05;18.50;93.10
9482;DHT22;4779;48.062;11.672;2023-10-08T09:26:37;18.70;92.00
9482;DHT22;4779;48.062;11.672;2023-10-08T09:29:05;18.80;92.10
9482;DHT22;4779;48.062;11.672;2023-10-08T09:31:34;18.90;92.10
9482;DHT22;4779;48.062;11.672;2023-10-08T09:34:04;19.00;91.60
9482;DHT22;4779;48.062;11.672;2023-10-08T09:36:31;19.00;92.20
9482;DHT22;4779;48.062;11.672;2023-10-08T09:39:01;19.00;92.90
9482;DHT22;4779;48.062;11.672;2023-10-08T09:41:31;18.90;93.20
9482;DHT22;4779;48.062;11.672;2023-10-08T09:43:58;18.90;92.10
9482;DHT22;4779;48.062;11.672;2023-10-08T09:46:29;18.90;92.90
9482;DHT22;4779;48.062;11.672;2023-10-08T09:48:59;18.80;93.00
9482;DHT22;4779;48.062;11.672;2023-10-08T09:51:29;18.90;93.80
9482;DHT22;4779;48.062;11.672;2023-10-08T09:54:05;19.00;93.70
9482;DHT22;4779;48.062;11.672;2023-10-08T09:56:36;19.10;95.70
9482;DHT22;4779;48.062;11.672;2023-10-08T09:59:05;19.20;95.60
9482;DHT22;4779;48.062;11.672;2023-10-08T10:01:33;19.20;96.60
9482;DHT22;4779;48.062;11.672;2023-10-08T10:04:00;19.40;96.40
9482;DHT22;4779;48.062;11.672;2023-10-08T10:06:30;19.50;95.30
9482;DHT22;4779;48.062;11.672;2023-10-08T10:08:57;19.70;95.80
9482;DHT22;4779;48.062;11.672;2023-10-08T10:11:28;19.90;95.90
9482;DHT22;4779;48.062;11.672;2023-10-08T10:13:59;20.10;95.60
9482;DHT22;4779;48.062;11.672;2023-10-08T10:16:27;20.30;95.40
9482;DHT22;4779;48.062;11.672;2023-10-08T10:18:55;20.30;95.70
9482;DHT22;4779;48.062;11.672;2023-10-08T10:21:33;20.30;96.70
9482;DHT22;4779;48.062;11.672;2023-10-08T10:24:00;20.20;95.00
9482;DHT22;4779;48.062;11.672;2023-10-08T10:26:29;20.20;97.20
9482;DHT22;4779;48.062;11.672;2023-10-08T10:29:19;20.20;96.60
9482;DHT22;4779;48.062;11.672;2023-10-08T10:31:48;20.30;95.20
9482;DHT22;4779;48.062;11.672;2023-10-08T10:34:20;20.30;94.90
9482;DHT22;4779;48.062;11.672;2023-10-08T10:36:50;20.30;95.30
9482;DHT22;4779;48.062;11.672;2023-10-08T10:39:28;20.20;95.50
9482;DHT22;4779;48.062;11.672;2023-10-08T10:42:00;20.10;94.70
9482;DHT22;4779;48.062;11.672;2023-10-08T10:44:29;20.00;94.60
9482;DHT22;4779;48.062;11.672;2023-10-08T10:46:58;19.90;95.60
9482;DHT22;4779;48.062;11.672;2023-10-08T10:49:54;19.80;95.60
9482;DHT22;4779;48.062;11.672;2023-10-08T10:52:43;19.80;95.20
9482;DHT22;4779;48.062;11.672;2023-10-08T10:55:18;19.70;95.70
9482;DHT22;4779;48.062;11.672;2023-10-08T10:57:49;19.60;96.30
9482;DHT22;4779;48.062;11.672;2023-10-08T11:00:22;19.50;96.20
9482;DHT22;4779;48.062;11.672;2023-10-08T11:03:15;19.40;96.70
9482;DHT22;4779;48.062;11.672;2023-10-08T11:05:52;19.40;97.00
9482;DHT22;4779;48.062;11.672;2023-10-08T11:08:22;19.40;96.90
9482;DHT22;4779;48.062;11.672;2023-10-08T11:10:57;19.40;96.10
9482;DHT22;4779;48.062;11.672;2023-10-08T11:13:25;19.30;97.10
9482;DHT22;4779;48.062;11.672;2023-10-08T11:15:56;19.20;97.60
9482;DHT22;4779;48.062;11.672;2023-10-08T11:18:26;19.30;96.70
9482;DHT22;4779;48.062;11.672;2023-10-08T11:21:05;19.20;97.80
9482;DHT22;4779;48.062;11.672;2023-10-08T11:23:44;19.20;96.30
9482;DHT22;4779;48.062;11.672;2023-10-08T11:26:12;19.20;97.60
9482;DHT22;4779;48.062;11.672;2023-10-08T11:28:42;19.20;96.70
9482;DHT22;4779;48.062;11.672;2023-10-08T11:31:14;19.20;97.20
9482;DHT22;4779;48.062;11.672;2023-10-08T11:33:45;19.10;97.60
9482;DHT22;4779;48.062;11.672;2023-10-08T11:36:20;19.20;97.20
9482;DHT22;4779;48.062;11.672;2023-10-08T11:38:55;19.20;96.80
9482;DHT22;4779;48.062;11.672;2023-10-08T11:41:27;19.20;96.60
9482;DHT22;4779;48.062;11.672;2023-10-08T11:43:56;19.10;97.90
9482;DHT22;4779;48.062;11.672;2023-10-08T11:46:24;19.10;98.40
9482;DHT22;4779;48.062;11.672;2023-10-08T11:48:59;19.10;98.50
9482;DHT22;4779;48.062;11.672;2023-10-08T11:51:31;19.10;97.70
9482;DHT22;4779;48.062;11.672;2023-10-08T11:54:00;19.10;99.00
9482;DHT22;4779;48.062;11.672;2023-10-08T11:56:28;19.00;97.70
9482;DHT22;4779;48.062;11.672;2023-10-08T11:58:55;19.00;97.30
9482;DHT22;4779;48.062;11.672;2023-10-08T12:01:23;19.10;97.90
9482;DHT22;4779;48.062;11.672;2023-10-08T12:03:50;19.10;97.40
9482;DHT22;4779;48.062;11.672;2023-10-08T12:06:17;19.20;97.20
9482;DHT22;4779;48.062;11.672;2023-10-08T12:08:45;19.20;96.70
9482;DHT22;4779;48.062;11.672;2023-10-08T12:11:16;19.30;96.20
9482;DHT22;4779;48.062;11.672;2023-10-08T12:13:43;19.30;98.10
9482;DHT22;4779;48.062;11.672;2023-10-08T12:16:14;19.40;97.60
9482;DHT22;4779;48.062;11.672;2023-10-08T12:18:47;19.40;97.40
9482;DHT22;4779;48.062;11.672;2023-10-08T12:21:24;19.40;97.30
9482;DHT22;4779;48.062;11.672;2023-10-08T12:23:51;19.40;97.20
9482;DHT22;4779;48.062;11.672;2023-10-08T12:26:25;19.40;96.60
9482;DHT22;4779;48.062;11.672;2023-10-08T12:28:52;19.40;96.70
9482;DHT22;4779;48.062;11.672;2023-10-08T12:31:20;19.40;95.90
9482;DHT22;4779;48.062;11.672;2023-10-08T12:33:48;19.40;96.20
9482;DHT22;4779;48.062;11.672;2023-10-08T12:36:19;19.30;97.30
9482;DHT22;4779;48.062;11.672;2023-10-08T12:38:49;19.30;97.10
9482;DHT22;4779;48.062;11.672;2023-10-08T12:41:24;19.30;97.60
9482;DHT22;4779;48.062;11.672;2023-10-08T12:43:53;19.20;97.00
9482;DHT22;4779;48.062;11.672;2023-10-08T12:46:21;19.20;96.60
9482;DHT22;4779;48.062;11.672;2023-10-08T12:48:51;19.20;97.20
9482;DHT22;4779;48.062;11.672;2023-10-08T12:51:20;19.10;96.70
9482;DHT22;4779;48.062;11.672;2023-10-08T12:53:50;19.10;97.60
9482;DHT22;4779;48.062;11.672;2023-10-08T12:56:26;19.00;97.40
9482;DHT22;4779;48.062;11.672;2023-10-08T12:59:07;19.00;97.30
9482;DHT22;4779;48.062;11.672;2023-10-08T13:01:43;18.90;97.00
9482;DHT22;4779;48.062;11.672;2023-10-08T13:04:10;19.00;96.50
9482;DHT22;4779;48.062;11.672;2023-10-08T13:06:41;19.00;96.50
9482;DHT22;4779;48.062;11.672;2023-10-08T13:09:11;19.00;96.90
9482;DHT22;4779;48.062;11.672;2023-10-08T13:11:40;19.00;97.70
9482;DHT22;4779;48.062;11.672;2023-10-08T13:14:09;19.00;96.00
9482;DHT22;4779;48.062;11.672;2023-10-08T13:16:36;19.00;96.50
9482;DHT22;4779;48.062;11.672;2023-10-08T13:19:04;19.10;97.90
9482;DHT22;4779;48.062;11.672;2023-10-08T13:21:34;19.10;96.70
9482;DHT22;4779;48.062;11.672;2023-10-08T13:24:02;19.10;96.00
9482;DHT22;4779;48.062;11.672;2023-10-08T13:26:35;19.10;96.00
9482;DHT22;4779;48.062;11.672;2023-10-08T13:29:04;19.20;96.00
9482;DHT22;4779;48.062;11.672;2023-10-08T13:31:34;19.20;95.90
9482;DHT22;4779;48.062;11.672;2023-10-08T13:34:02;19.20;96.60
9482;DHT22;4779;48.062;11.672;2023-10-08T13:36:34;19.20;96.50
9482;DHT22;4779;48.062;11.672;2023-10-08T13:39:03;19.30;97.20
9482;DHT22;4779;48.062;11.672;2023-10-08T13:41:34;19.30;97.30
9482;DHT22;4779;48.062;11.672;2023-10-08T13:44:05;19.40;96.70
9482;DHT22;4779;48.062;11.672;2023-10-08T13:46:32;19.40;96.60
9482;DHT22;4779;48.062;11.672;2023-10-08T13:49:02;19.40;95.50
9482;DHT22;4779;48.062;11.672;2023-10-08T13:51:31;19.50;96.60
9482;DHT22;4779;48.062;11.672;2023-10-08T13:54:00;19.60;96.90
9482;DHT22;4779;48.062;11.672;2023-10-08T13:56:32;19.60;97.10
9482;DHT22;4779;48.062;11.672;2023-10-08T13:58:59;19.60;96.90
9482;DHT22;4779;48.062;11.672;2023-10-08T14:01:40;19.50;96.70
9482;DHT22;4779;48.062;11.672;2023-10-08T14:04:09;19.50;97.10
9482;DHT22;4779;48.062;11.672;2023-10-08T14:06:38;19.40;97.90
9482;DHT22;4779;48.062;11.672;2023-10-08T14:09:08;19.40;97.20
9482;DHT22;4779;48.062;11.672;2023-10-08T14:11:38;19.40;98.40
9482;DHT22;4779;48.062;11.672;2023-10-08T14:14:05;19.40;98.10
9482;DHT22;4779;48.062;11.672;2023-10-08T14:16:38;19.30;98.10
9482;DHT22;4779;48.062;11.672;2023-10-08T14:19:07;19.30;98.80
9482;DHT22;4779;48.062;11.672;2023-10-08T14:21:38;19.30;97.80
9482;DHT22;4779;48.062;11.672;2023-10-08T14:24:15;19.30;98.60
9482;DHT22;4779;48.062;11.672;2023-10-08T14:26:42;19.20;99.40
9482;DHT22;4779;48.062;11.672;2023-10-08T14:29:09;19.20;98.00
9482;DHT22;4779;48.062;11.672;2023-10-08T14:31:42;19.20;97.60
9482;DHT22;4779;48.062;11.672;2023-10-08T14:34:14;19.20;98.00
9482;DHT22;4779;48.062;11.672;2023-10-08T14:37:07;19.20;98.00
9482;DHT22;4779;48.062;11.672;2023-10-08T14:39:51;19.20;98.30
9482;DHT22;4779;48.062;11.672;2023-10-08T14:42:36;19.20;98.40
9482;DHT22;4779;48.062;11.672;2023-10-08T14:45:29;19.10;99.40
9482;DHT22;4779;48.062;11.672;2023-10-08T14:47:58;19.00;99.10
9482;DHT22;4779;48.062;11.672;2023-10-08T14:50:26;19.00;99.50
9482;DHT22;4779;48.062;11.672;2023-10-08T14:52:56;18.90;99.20
9482;DHT22;4779;48.062;11.672;2023-10-08T14:55:25;18.90;98.50
9482;DHT22;4779;48.062;11.672;2023-10-08T14:57:53;18.90;98.90
9482;DHT22;4779;48.062;11.672;2023-10-08T15:00:20;18.90;99.80
9482;DHT22;4779;48.062;11.672;2023-10-08T15:02:51;18.90;99.90
9482;DHT22;4779;48.062;11.672;2023-10-08T15:05:20;18.90;99.90
9482;DHT22;4779;48.062;11.672;2023-10-08T15:07:48;18.80;99.90
9482;DHT22;4779;48.062;11.672;2023-10-08T15:10:16;18.80;99.90
9482;DHT22;4779;48.062;11.672;2023-10-08T15:12:43;18.70;99.90
9482;DHT22;4779;48.062;11.672;2023-10-08T15:15:10;18.70;99.90
9482;DHT22;4779;48.062;11.672;2023-10-08T15:17:40;18.60;99.90
9482;DHT22;4779;48.062;11.672;2023-10-08T15:20:08;18.60;99.90
9482;DHT22;4779;48.062;11.672;2023-10-08T15:22:41;18.50;99.90
9482;DHT22;4779;48.062;11.672;2023-10-08T15:25:09;18.50;99.90
9482;DHT22;4779;48.062;11.672;2023-10-08T15:27:37;18.40;99.90
9482;DHT22;4779;48.062;11.672;2023-10-08T15:30:07;18.40;99.90
9482;DHT22;4779;48.062;11.672;2023-10-08T15:32:37;18.40;99.90
9482;DHT22;4779;48.062;11.672;2023-10-08T15:35:06;18.30;99.90
9482;DHT22;4779;48.062;11.672;2023-10-08T15:37:35;18.30;99.90
9482;DHT22;4779;48.062;11.672;2023-10-08T15:40:05;18.20;99.90
9482;DHT22;4779;48.062;11.672;2023-10-08T15:42:32;18.10;99.90
9482;DHT22;4779;48.062;11.672;2023-10-08T15:45:01;18.10;99.90
9482;DHT22;4779;48.062;11.672;2023-10-08T15:47:29;18.00;99.90
9482;DHT22;4779;48.062;11.672;2023-10-08T15:49:57;17.90;99.90
9482;DHT22;4779;48.062;11.672;2023-10-08T15:52:25;17.90;99.90
9482;DHT22;4779;48.062;11.672;2023-10-08T15:54:52;17.90;99.90
9482;DHT22;4779;48.062;11.672;2023-10-08T15:57:20;17.90;99.90
9482;DHT22;4779;48.062;11.672;2023-10-08T15:59:47;17.80;99.90
9482;DHT22;4779;48.062;11.672;2023-10-08T16:02:15;17.80;99.90
9482;DHT22;4779;48.062;11.672;2023-10-08T16:04:43;17.70;99.90
9482;DHT22;4779;48.062;11.672;2023-10-08T16:07:10;17.70;99.90
9482;DHT22;4779;48.062;11.672;2023-10-08T16:09:38;17.60;99.90
9482;DHT22;4779;48.062;11.672;2023-10-08T16:12:06;17.50;99.90
9482;DHT22;4779;48.062;11.672;2023-10-08T16:14:35;17.50;99.90